Hayward — AEEA — position and weather

sailwx.info

Track history (hours):
 
Tides and Currents Weather Stations Pressure Air Temp Water Temp Dewpoint Dewpoint Depression Visibility Wind Speed Wind Dir Waves Ship Positions

Hayward

Last reported at 2018-Feb-18 17:34 UTC. Time now 2018-Feb-23 22:44 UTC.
Position N 40°41' W 074°04'.

Length 37 m; draft 2.7 m.

MMSI: 366999412.

Date/timePositionNaut miles runAvg speedWind from/ knotsBaromVisibWave heightAir tempDewpointWater temp
2018-Feb-18 17:34N 40°41' W 074°04'1 9.8
2018-Feb-18 17:30N 40°41' W 074°03'4 7.2
2018-Feb-18 17:00N 40°44' W 074°02'0 0.0
2018-Feb-18 16:29N 40°44' W 074°02'0 0.3
2018-Feb-18 16:00N 40°44' W 074°01'3 6.5
2018-Feb-18 15:30N 40°41' W 074°02'3 6.0
2018-Feb-18 15:00N 40°39' W 074°05'3 5.8
2018-Feb-18 14:28N 40°39' W 074°09'2 5.3
2018-Feb-18 14:00N 40°39' W 074°06'2 4.8
2018-Feb-18 13:30N 40°41' W 074°04'0 0.1
2018-Feb-18 13:00N 40°41' W 074°04'0 0.0
2018-Feb-17 18:00N 40°41' W 074°04'5 9.3
2018-Feb-17 17:31N 40°45' W 074°01'1 1.3
2018-Feb-17 17:00N 40°44' W 074°02'0 0.0
2018-Feb-17 16:30N 40°44' W 074°02'1 2.0
2018-Feb-17 16:01N 40°43' W 074°01'2 3.3
2018-Feb-17 15:30N 40°42' W 073°59'4 8.1
2018-Feb-17 15:01N 40°39' W 074°02'5 8.8
2018-Feb-17 14:28N 40°34' W 074°01'3 5.5
2018-Feb-17 14:01N 40°36' W 074°03'3 6.7
2018-Feb-17 13:30N 40°39' W 074°06'3 5.4
2018-Feb-17 13:00N 40°41' W 074°04'0 0.0
2018-Feb-16 19:40N 40°41' W 074°04'1 4.1
2018-Feb-16 19:30N 40°41' W 074°04'0 0.4
2018-Feb-16 19:00N 40°41' W 074°04'0 0.0
2018-Feb-16 18:30N 40°41' W 074°04'1 2.7
2018-Feb-16 18:00N 40°41' W 074°02'3 5.3
2018-Feb-16 17:30N 40°44' W 074°02'0 0.0
2018-Feb-16 17:00N 40°44' W 074°02'0 0.0
2018-Feb-16 16:30N 40°44' W 074°02'1 1.2
2018-Feb-16 16:00N 40°44' W 074°01'4 8.4
2018-Feb-16 15:30N 40°40' W 074°02'2 4.0
2018-Feb-16 15:00N 40°39' W 074°05'4 8.2
2018-Feb-16 14:30N 40°39' W 074°10'3 6.0
2018-Feb-16 14:00N 40°39' W 074°07'3 5.6
2018-Feb-16 13:30N 40°41' W 074°04'0 0.0
2018-Feb-16 13:00N 40°41' W 074°04'0 0.0
2018-Feb-16 12:30N 40°41' W 074°04'0 0.0
2018-Feb-15 19:54N 40°41' W 074°04'0 1.3
2018-Feb-15 19:31N 40°41' W 074°04'0 0.0
2018-Feb-15 19:01N 40°41' W 074°04'0 0.3
2018-Feb-15 18:30N 40°41' W 074°04'1 2.5
2018-Feb-15 18:00N 40°40' W 074°03'1 1.8
2018-Feb-15 17:30N 40°39' W 074°02'1 1.1
2018-Feb-15 17:00N 40°39' W 074°02'0 0.0
2018-Feb-15 16:30N 40°39' W 074°02'1 1.0
2018-Feb-15 16:01N 40°39' W 074°02'2 4.8
2018-Feb-15 15:31N 40°42' W 074°00'4 7.5
2018-Feb-15 15:01N 40°38' W 074°03'2 4.6
2018-Feb-15 14:30N 40°39' W 074°05'2 4.8
2018-Feb-15 14:00N 40°40' W 074°08'3 5.0
2018-Feb-15 13:29N 40°39' W 074°05'2 0.1
2018-Feb-14 19:37N 40°41' W 074°04'0 3.0
2018-Feb-14 19:30N 40°41' W 074°04'0 0.0
2018-Feb-14 19:00N 40°41' W 074°04'0 0.0
2018-Feb-14 18:30N 40°41' W 074°04'2 3.6
2018-Feb-14 18:00N 40°42' W 074°02'2 4.3
2018-Feb-14 17:30N 40°44' W 074°02'0 0.0
2018-Feb-14 17:00N 40°44' W 074°02'0 0.0
2018-Feb-14 16:29N 40°44' W 074°02'0 0.0
2018-Feb-14 16:00N 40°44' W 074°02'1 1.2
2018-Feb-14 15:30N 40°45' W 074°01'4 8.4
2018-Feb-14 15:00N 40°40' W 074°01'0 0.2
2018-Feb-14 14:30N 40°40' W 074°01'0 0.0
2018-Feb-14 14:00N 40°40' W 074°01'0 0.0
2018-Feb-14 13:30N 40°40' W 074°01'0 0.0
2018-Feb-14 13:00N 40°40' W 074°01'3 5.3
2018-Feb-14 12:30N 40°41' W 074°04'  
2018-Feb-08 19:30N 40°41' W 074°04'0 0.0
2018-Feb-08 19:00N 40°41' W 074°04'0 0.9
2018-Feb-08 18:30N 40°41' W 074°03'2 3.5
2018-Feb-08 18:00N 40°40' W 074°01'  
Track history (hours):
 
Tides and Currents Weather Stations Pressure Air Temp Water Temp Dewpoint Dewpoint Depression Visibility Wind Speed Wind Dir Waves Ship Positions

Hayward

Last reported at 2018-Feb-18 17:34 UTC. Time now 2018-Feb-23 22:44 UTC.
Position N 40°41' W 074°04'.

Length 37 m; draft 2.7 m.

MMSI: 366999412.

Date/timePositionNaut miles runAvg speedWind from/ knotsBaromVisibWave heightAir tempDewpointWater temp
2018-Feb-18 17:34N 40°41' W 074°04'1 9.8
2018-Feb-18 17:30N 40°41' W 074°03'4 7.2
2018-Feb-18 17:00N 40°44' W 074°02'0 0.0
2018-Feb-18 16:29N 40°44' W 074°02'0 0.3
2018-Feb-18 16:00N 40°44' W 074°01'3 6.5
2018-Feb-18 15:30N 40°41' W 074°02'3 6.0
2018-Feb-18 15:00N 40°39' W 074°05'3 5.8
2018-Feb-18 14:28N 40°39' W 074°09'2 5.3
2018-Feb-18 14:00N 40°39' W 074°06'2 4.8
2018-Feb-18 13:30N 40°41' W 074°04'0 0.1
2018-Feb-18 13:00N 40°41' W 074°04'0 0.0
2018-Feb-17 18:00N 40°41' W 074°04'5 9.3
2018-Feb-17 17:31N 40°45' W 074°01'1 1.3
2018-Feb-17 17:00N 40°44' W 074°02'0 0.0
2018-Feb-17 16:30N 40°44' W 074°02'1 2.0
2018-Feb-17 16:01N 40°43' W 074°01'2 3.3
2018-Feb-17 15:30N 40°42' W 073°59'4 8.1
2018-Feb-17 15:01N 40°39' W 074°02'5 8.8
2018-Feb-17 14:28N 40°34' W 074°01'3 5.5
2018-Feb-17 14:01N 40°36' W 074°03'3 6.7
2018-Feb-17 13:30N 40°39' W 074°06'3 5.4
2018-Feb-17 13:00N 40°41' W 074°04'0 0.0
2018-Feb-16 19:40N 40°41' W 074°04'1 4.1
2018-Feb-16 19:30N 40°41' W 074°04'0 0.4
2018-Feb-16 19:00N 40°41' W 074°04'0 0.0
2018-Feb-16 18:30N 40°41' W 074°04'1 2.7
2018-Feb-16 18:00N 40°41' W 074°02'3 5.3
2018-Feb-16 17:30N 40°44' W 074°02'0 0.0
2018-Feb-16 17:00N 40°44' W 074°02'0 0.0
2018-Feb-16 16:30N 40°44' W 074°02'1 1.2
2018-Feb-16 16:00N 40°44' W 074°01'4 8.4
2018-Feb-16 15:30N 40°40' W 074°02'2 4.0
2018-Feb-16 15:00N 40°39' W 074°05'4 8.2
2018-Feb-16 14:30N 40°39' W 074°10'3 6.0
2018-Feb-16 14:00N 40°39' W 074°07'3 5.6
2018-Feb-16 13:30N 40°41' W 074°04'0 0.0
2018-Feb-16 13:00N 40°41' W 074°04'0 0.0
2018-Feb-16 12:30N 40°41' W 074°04'0 0.0
2018-Feb-15 19:54N 40°41' W 074°04'0 1.3
2018-Feb-15 19:31N 40°41' W 074°04'0 0.0
2018-Feb-15 19:01N 40°41' W 074°04'0 0.3
2018-Feb-15 18:30N 40°41' W 074°04'1 2.5
2018-Feb-15 18:00N 40°40' W 074°03'1 1.8
2018-Feb-15 17:30N 40°39' W 074°02'1 1.1
2018-Feb-15 17:00N 40°39' W 074°02'0 0.0
2018-Feb-15 16:30N 40°39' W 074°02'1 1.0
2018-Feb-15 16:01N 40°39' W 074°02'2 4.8
2018-Feb-15 15:31N 40°42' W 074°00'4 7.5
2018-Feb-15 15:01N 40°38' W 074°03'2 4.6
2018-Feb-15 14:30N 40°39' W 074°05'2 4.8
2018-Feb-15 14:00N 40°40' W 074°08'3 5.0
2018-Feb-15 13:29N 40°39' W 074°05'2 0.1
2018-Feb-14 19:37N 40°41' W 074°04'0 3.0
2018-Feb-14 19:30N 40°41' W 074°04'0 0.0
2018-Feb-14 19:00N 40°41' W 074°04'0 0.0
2018-Feb-14 18:30N 40°41' W 074°04'2 3.6
2018-Feb-14 18:00N 40°42' W 074°02'2 4.3
2018-Feb-14 17:30N 40°44' W 074°02'0 0.0
2018-Feb-14 17:00N 40°44' W 074°02'0 0.0
2018-Feb-14 16:29N 40°44' W 074°02'0 0.0
2018-Feb-14 16:00N 40°44' W 074°02'1 1.2
2018-Feb-14 15:30N 40°45' W 074°01'4 8.4
2018-Feb-14 15:00N 40°40' W 074°01'0 0.2
2018-Feb-14 14:30N 40°40' W 074°01'0 0.0
2018-Feb-14 14:00N 40°40' W 074°01'0 0.0
2018-Feb-14 13:30N 40°40' W 074°01'0 0.0
2018-Feb-14 13:00N 40°40' W 074°01'3 5.3
2018-Feb-14 12:30N 40°41' W 074°04'  
2018-Feb-08 19:30N 40°41' W 074°04'0 0.0
2018-Feb-08 19:00N 40°41' W 074°04'0 0.9
2018-Feb-08 18:30N 40°41' W 074°03'2 3.5
2018-Feb-08 18:00N 40°40' W 074°01'  

Dump ship's entire track history